sensor_id;sensor_type;location;lat;lon;timestamp;P1;durP1;ratioP1;P2;durP2;ratioP2
35488;SDS011;21602;55.670;37.578;2022-10-18T00:02:12;9.20;;;5.38;;
35488;SDS011;21602;55.670;37.578;2022-10-18T00:04:38;7.20;;;4.80;;
35488;SDS011;21602;55.670;37.578;2022-10-18T00:07:04;7.15;;;4.82;;
35488;SDS011;21602;55.670;37.578;2022-10-18T00:09:30;8.35;;;5.70;;
35488;SDS011;21602;55.670;37.578;2022-10-18T00:11:56;11.18;;;6.47;;
35488;SDS011;21602;55.670;37.578;2022-10-18T00:14:22;7.55;;;4.85;;
35488;SDS011;21602;55.670;37.578;2022-10-18T00:16:47;9.18;;;5.43;;
35488;SDS011;21602;55.670;37.578;2022-10-18T00:19:13;8.40;;;5.80;;
35488;SDS011;21602;55.670;37.578;2022-10-18T00:21:39;9.20;;;4.93;;
35488;SDS011;21602;55.670;37.578;2022-10-18T00:24:05;7.55;;;4.93;;
35488;SDS011;21602;55.670;37.578;2022-10-18T00:26:31;7.82;;;4.72;;
35488;SDS011;21602;55.670;37.578;2022-10-18T00:28:58;7.25;;;4.72;;
35488;SDS011;21602;55.670;37.578;2022-10-18T00:31:27;5.45;;;4.60;;
35488;SDS011;21602;55.670;37.578;2022-10-18T00:33:57;9.07;;;5.55;;
35488;SDS011;21602;55.670;37.578;2022-10-18T00:36:27;9.23;;;5.03;;
35488;SDS011;21602;55.670;37.578;2022-10-18T00:38:54;5.75;;;5.03;;
35488;SDS011;21602;55.670;37.578;2022-10-18T00:41:22;6.68;;;4.93;;
35488;SDS011;21602;55.670;37.578;2022-10-18T00:46:29;5.80;;;4.35;;
35488;SDS011;21602;55.670;37.578;2022-10-18T00:49:04;9.98;;;5.07;;
35488;SDS011;21602;55.670;37.578;2022-10-18T00:51:38;11.43;;;5.70;;
35488;SDS011;21602;55.670;37.578;2022-10-18T00:54:15;7.45;;;4.80;;
35488;SDS011;21602;55.670;37.578;2022-10-18T00:56:43;7.25;;;4.85;;
35488;SDS011;21602;55.670;37.578;2022-10-18T00:59:10;9.93;;;5.30;;
35488;SDS011;21602;55.670;37.578;2022-10-18T01:01:39;8.00;;;5.25;;
35488;SDS011;21602;55.670;37.578;2022-10-18T01:04:04;8.10;;;5.45;;
35488;SDS011;21602;55.670;37.578;2022-10-18T01:06:30;7.88;;;5.10;;
35488;SDS011;21602;55.670;37.578;2022-10-18T01:14:51;10.02;;;5.85;;
35488;SDS011;21602;55.670;37.578;2022-10-18T01:25:25;9.70;;;5.47;;
35488;SDS011;21602;55.670;37.578;2022-10-18T01:27:57;7.50;;;5.20;;
35488;SDS011;21602;55.670;37.578;2022-10-18T01:36:10;8.02;;;4.95;;
35488;SDS011;21602;55.670;37.578;2022-10-18T01:38:41;9.02;;;5.50;;
35488;SDS011;21602;55.670;37.578;2022-10-18T01:41:09;10.95;;;6.00;;
35488;SDS011;21602;55.670;37.578;2022-10-18T01:43:37;9.43;;;5.55;;
35488;SDS011;21602;55.670;37.578;2022-10-18T01:46:05;9.80;;;5.65;;
35488;SDS011;21602;55.670;37.578;2022-10-18T01:48:33;8.70;;;5.50;;
35488;SDS011;21602;55.670;37.578;2022-10-18T01:53:32;10.05;;;5.25;;
35488;SDS011;21602;55.670;37.578;2022-10-18T02:01:19;12.02;;;5.15;;
35488;SDS011;21602;55.670;37.578;2022-10-18T02:03:56;8.52;;;5.50;;
35488;SDS011;21602;55.670;37.578;2022-10-18T02:06:37;9.88;;;5.65;;
35488;SDS011;21602;55.670;37.578;2022-10-18T02:09:18;8.57;;;5.47;;
35488;SDS011;21602;55.670;37.578;2022-10-18T02:11:52;10.23;;;5.30;;
35488;SDS011;21602;55.670;37.578;2022-10-18T02:14:20;7.28;;;5.15;;
35488;SDS011;21602;55.670;37.578;2022-10-18T02:16:51;8.27;;;5.53;;
35488;SDS011;21602;55.670;37.578;2022-10-18T02:21:46;8.73;;;4.82;;
35488;SDS011;21602;55.670;37.578;2022-10-18T02:24:14;10.00;;;5.45;;
35488;SDS011;21602;55.670;37.578;2022-10-18T02:26:40;7.35;;;4.97;;
35488;SDS011;21602;55.670;37.578;2022-10-18T02:29:07;10.20;;;5.43;;
35488;SDS011;21602;55.670;37.578;2022-10-18T02:34:22;5.78;;;4.38;;
35488;SDS011;21602;55.670;37.578;2022-10-18T02:36:54;10.23;;;5.65;;
35488;SDS011;21602;55.670;37.578;2022-10-18T02:39:27;8.85;;;5.13;;
35488;SDS011;21602;55.670;37.578;2022-10-18T02:41:59;7.38;;;5.57;;
35488;SDS011;21602;55.670;37.578;2022-10-18T02:44:31;7.28;;;5.25;;
35488;SDS011;21602;55.670;37.578;2022-10-18T02:46:57;7.72;;;4.75;;
35488;SDS011;21602;55.670;37.578;2022-10-18T02:49:23;9.60;;;5.43;;
35488;SDS011;21602;55.670;37.578;2022-10-18T02:51:49;8.63;;;5.32;;
35488;SDS011;21602;55.670;37.578;2022-10-18T02:54:15;8.82;;;5.63;;
35488;SDS011;21602;55.670;37.578;2022-10-18T02:56:41;6.80;;;4.53;;
35488;SDS011;21602;55.670;37.578;2022-10-18T02:59:07;7.95;;;5.40;;
35488;SDS011;21602;55.670;37.578;2022-10-18T03:01:33;10.98;;;5.70;;
35488;SDS011;21602;55.670;37.578;2022-10-18T03:04:03;7.50;;;5.18;;
35488;SDS011;21602;55.670;37.578;2022-10-18T03:06:29;9.25;;;5.75;;
35488;SDS011;21602;55.670;37.578;2022-10-18T03:08:55;13.73;;;6.35;;
35488;SDS011;21602;55.670;37.578;2022-10-18T03:11:21;8.50;;;4.97;;
35488;SDS011;21602;55.670;37.578;2022-10-18T03:13:47;10.13;;;5.30;;
35488;SDS011;21602;55.670;37.578;2022-10-18T03:16:15;13.50;;;6.00;;
35488;SDS011;21602;55.670;37.578;2022-10-18T03:18:41;9.35;;;5.57;;
35488;SDS011;21602;55.670;37.578;2022-10-18T03:21:07;7.45;;;4.97;;
35488;SDS011;21602;55.670;37.578;2022-10-18T03:23:34;9.45;;;5.65;;
35488;SDS011;21602;55.670;37.578;2022-10-18T03:26:00;9.85;;;5.07;;
35488;SDS011;21602;55.670;37.578;2022-10-18T03:28:27;9.18;;;4.90;;
35488;SDS011;21602;55.670;37.578;2022-10-18T03:30:53;19.73;;;6.20;;
35488;SDS011;21602;55.670;37.578;2022-10-18T03:33:25;10.63;;;5.50;;
35488;SDS011;21602;55.670;37.578;2022-10-18T03:35:51;8.32;;;5.22;;
35488;SDS011;21602;55.670;37.578;2022-10-18T03:38:17;8.98;;;5.57;;
35488;SDS011;21602;55.670;37.578;2022-10-18T03:40:42;10.40;;;5.10;;
35488;SDS011;21602;55.670;37.578;2022-10-18T03:43:08;11.18;;;6.20;;
35488;SDS011;21602;55.670;37.578;2022-10-18T03:45:34;10.98;;;5.35;;
35488;SDS011;21602;55.670;37.578;2022-10-18T03:48:00;14.57;;;5.68;;
35488;SDS011;21602;55.670;37.578;2022-10-18T03:50:25;8.30;;;5.72;;
35488;SDS011;21602;55.670;37.578;2022-10-18T03:52:51;7.03;;;5.03;;
35488;SDS011;21602;55.670;37.578;2022-10-18T03:55:18;9.68;;;5.63;;
35488;SDS011;21602;55.670;37.578;2022-10-18T03:57:44;12.55;;;6.00;;
35488;SDS011;21602;55.670;37.578;2022-10-18T04:00:10;10.90;;;5.82;;
35488;SDS011;21602;55.670;37.578;2022-10-18T04:02:39;12.40;;;6.15;;
35488;SDS011;21602;55.670;37.578;2022-10-18T04:05:06;12.57;;;6.30;;
35488;SDS011;21602;55.670;37.578;2022-10-18T04:07:33;9.52;;;6.72;;
35488;SDS011;21602;55.670;37.578;2022-10-18T04:10:00;8.23;;;5.90;;
35488;SDS011;21602;55.670;37.578;2022-10-18T04:12:26;9.18;;;6.50;;
35488;SDS011;21602;55.670;37.578;2022-10-18T04:14:52;11.20;;;6.07;;
35488;SDS011;21602;55.670;37.578;2022-10-18T04:17:18;10.18;;;5.88;;
35488;SDS011;21602;55.670;37.578;2022-10-18T04:19:43;10.45;;;6.03;;
35488;SDS011;21602;55.670;37.578;2022-10-18T04:22:09;10.35;;;5.80;;
35488;SDS011;21602;55.670;37.578;2022-10-18T04:24:36;9.50;;;6.45;;
35488;SDS011;21602;55.670;37.578;2022-10-18T04:27:05;17.33;;;7.10;;
35488;SDS011;21602;55.670;37.578;2022-10-18T04:29:32;8.98;;;6.03;;
35488;SDS011;21602;55.670;37.578;2022-10-18T04:31:58;10.00;;;6.85;;
35488;SDS011;21602;55.670;37.578;2022-10-18T04:34:24;10.68;;;5.60;;
35488;SDS011;21602;55.670;37.578;2022-10-18T04:36:49;10.40;;;6.30;;
35488;SDS011;21602;55.670;37.578;2022-10-18T04:39:15;7.85;;;6.03;;
35488;SDS011;21602;55.670;37.578;2022-10-18T04:41:41;16.20;;;7.90;;
35488;SDS011;21602;55.670;37.578;2022-10-18T04:44:07;13.75;;;6.35;;
35488;SDS011;21602;55.670;37.578;2022-10-18T04:46:34;11.15;;;5.93;;
35488;SDS011;21602;55.670;37.578;2022-10-18T04:48:59;12.43;;;6.28;;
35488;SDS011;21602;55.670;37.578;2022-10-18T04:51:29;11.98;;;6.18;;
35488;SDS011;21602;55.670;37.578;2022-10-18T04:53:55;11.52;;;6.00;;
35488;SDS011;21602;55.670;37.578;2022-10-18T04:56:21;9.50;;;6.13;;
35488;SDS011;21602;55.670;37.578;2022-10-18T04:58:48;16.00;;;7.07;;
35488;SDS011;21602;55.670;37.578;2022-10-18T05:01:13;11.38;;;6.45;;
35488;SDS011;21602;55.670;37.578;2022-10-18T05:03:41;12.30;;;6.93;;
35488;SDS011;21602;55.670;37.578;2022-10-18T05:06:07;10.85;;;6.63;;
35488;SDS011;21602;55.670;37.578;2022-10-18T05:08:33;10.52;;;6.10;;
35488;SDS011;21602;55.670;37.578;2022-10-18T05:11:00;11.48;;;6.88;;
35488;SDS011;21602;55.670;37.578;2022-10-18T05:13:26;8.52;;;6.28;;
35488;SDS011;21602;55.670;37.578;2022-10-18T05:15:52;11.98;;;7.57;;
35488;SDS011;21602;55.670;37.578;2022-10-18T05:18:18;12.15;;;7.50;;
35488;SDS011;21602;55.670;37.578;2022-10-18T05:20:44;10.05;;;6.95;;
35488;SDS011;21602;55.670;37.578;2022-10-18T05:23:10;11.00;;;7.47;;
35488;SDS011;21602;55.670;37.578;2022-10-18T05:25:40;11.60;;;8.05;;
35488;SDS011;21602;55.670;37.578;2022-10-18T05:28:07;10.95;;;7.13;;
35488;SDS011;21602;55.670;37.578;2022-10-18T05:30:36;14.55;;;7.95;;
35488;SDS011;21602;55.670;37.578;2022-10-18T05:33:03;11.05;;;7.35;;
35488;SDS011;21602;55.670;37.578;2022-10-18T05:35:29;9.60;;;7.18;;
35488;SDS011;21602;55.670;37.578;2022-10-18T05:37:56;11.02;;;7.93;;
35488;SDS011;21602;55.670;37.578;2022-10-18T05:40:21;16.48;;;7.90;;
35488;SDS011;21602;55.670;37.578;2022-10-18T05:42:50;13.63;;;7.95;;
35488;SDS011;21602;55.670;37.578;2022-10-18T05:45:16;12.05;;;7.93;;
35488;SDS011;21602;55.670;37.578;2022-10-18T05:47:41;13.60;;;8.82;;
35488;SDS011;21602;55.670;37.578;2022-10-18T05:50:07;11.50;;;7.97;;
35488;SDS011;21602;55.670;37.578;2022-10-18T05:52:33;11.90;;;8.07;;
35488;SDS011;21602;55.670;37.578;2022-10-18T05:54:59;11.50;;;8.63;;
35488;SDS011;21602;55.670;37.578;2022-10-18T05:57:25;15.05;;;8.88;;
35488;SDS011;21602;55.670;37.578;2022-10-18T05:59:50;13.93;;;9.02;;
35488;SDS011;21602;55.670;37.578;2022-10-18T06:02:16;15.80;;;9.20;;
35488;SDS011;21602;55.670;37.578;2022-10-18T06:04:42;10.65;;;8.25;;
35488;SDS011;21602;55.670;37.578;2022-10-18T06:07:08;14.77;;;8.88;;
35488;SDS011;21602;55.670;37.578;2022-10-18T06:09:35;15.83;;;8.87;;
35488;SDS011;21602;55.670;37.578;2022-10-18T06:12:02;12.52;;;8.55;;
35488;SDS011;21602;55.670;37.578;2022-10-18T06:14:28;14.15;;;8.40;;
35488;SDS011;21602;55.670;37.578;2022-10-18T06:16:54;12.52;;;8.65;;
35488;SDS011;21602;55.670;37.578;2022-10-18T06:19:21;17.38;;;9.00;;
35488;SDS011;21602;55.670;37.578;2022-10-18T06:21:47;15.02;;;9.73;;
35488;SDS011;21602;55.670;37.578;2022-10-18T06:24:13;12.60;;;8.15;;
35488;SDS011;21602;55.670;37.578;2022-10-18T06:26:39;14.15;;;8.38;;
35488;SDS011;21602;55.670;37.578;2022-10-18T06:29:05;11.43;;;8.68;;
35488;SDS011;21602;55.670;37.578;2022-10-18T06:31:31;14.48;;;8.85;;
35488;SDS011;21602;55.670;37.578;2022-10-18T06:33:57;14.88;;;8.55;;
35488;SDS011;21602;55.670;37.578;2022-10-18T06:36:22;15.07;;;8.93;;
35488;SDS011;21602;55.670;37.578;2022-10-18T06:38:49;14.50;;;8.98;;
35488;SDS011;21602;55.670;37.578;2022-10-18T06:41:16;18.50;;;9.98;;
35488;SDS011;21602;55.670;37.578;2022-10-18T06:43:46;12.35;;;8.35;;
35488;SDS011;21602;55.670;37.578;2022-10-18T06:46:13;15.02;;;9.40;;
35488;SDS011;21602;55.670;37.578;2022-10-18T06:48:39;11.40;;;8.45;;
35488;SDS011;21602;55.670;37.578;2022-10-18T06:51:06;15.80;;;8.77;;
35488;SDS011;21602;55.670;37.578;2022-10-18T06:53:34;13.48;;;8.93;;
35488;SDS011;21602;55.670;37.578;2022-10-18T06:56:02;12.25;;;8.18;;
35488;SDS011;21602;55.670;37.578;2022-10-18T06:58:32;15.98;;;8.40;;
35488;SDS011;21602;55.670;37.578;2022-10-18T07:00:58;14.98;;;8.82;;
35488;SDS011;21602;55.670;37.578;2022-10-18T07:03:29;12.75;;;8.68;;
35488;SDS011;21602;55.670;37.578;2022-10-18T07:05:58;12.27;;;8.35;;
35488;SDS011;21602;55.670;37.578;2022-10-18T07:08:25;11.50;;;7.85;;
35488;SDS011;21602;55.670;37.578;2022-10-18T07:10:53;16.52;;;9.00;;
35488;SDS011;21602;55.670;37.578;2022-10-18T07:13:19;12.88;;;8.43;;
35488;SDS011;21602;55.670;37.578;2022-10-18T07:18:49;12.43;;;8.57;;
35488;SDS011;21602;55.670;37.578;2022-10-18T07:21:20;13.65;;;8.88;;
35488;SDS011;21602;55.670;37.578;2022-10-18T07:23:48;14.77;;;7.90;;
35488;SDS011;21602;55.670;37.578;2022-10-18T07:26:19;10.55;;;8.30;;
35488;SDS011;21602;55.670;37.578;2022-10-18T07:28:47;13.93;;;8.48;;
35488;SDS011;21602;55.670;37.578;2022-10-18T07:31:24;11.60;;;7.78;;
35488;SDS011;21602;55.670;37.578;2022-10-18T07:33:52;15.10;;;8.80;;
35488;SDS011;21602;55.670;37.578;2022-10-18T07:36:18;19.00;;;9.23;;
35488;SDS011;21602;55.670;37.578;2022-10-18T07:38:46;13.23;;;8.27;;
35488;SDS011;21602;55.670;37.578;2022-10-18T07:41:13;14.43;;;8.65;;
35488;SDS011;21602;55.670;37.578;2022-10-18T07:43:43;12.75;;;8.57;;
35488;SDS011;21602;55.670;37.578;2022-10-18T07:46:11;12.63;;;8.13;;
35488;SDS011;21602;55.670;37.578;2022-10-18T07:48:37;14.23;;;8.32;;
35488;SDS011;21602;55.670;37.578;2022-10-18T07:51:03;14.85;;;8.95;;
35488;SDS011;21602;55.670;37.578;2022-10-18T07:53:29;15.50;;;9.90;;
35488;SDS011;21602;55.670;37.578;2022-10-18T07:56:06;10.07;;;7.88;;
35488;SDS011;21602;55.670;37.578;2022-10-18T07:58:40;13.00;;;7.90;;
35488;SDS011;21602;55.670;37.578;2022-10-18T08:01:07;10.27;;;7.38;;
35488;SDS011;21602;55.670;37.578;2022-10-18T08:03:34;12.95;;;7.93;;
35488;SDS011;21602;55.670;37.578;2022-10-18T08:06:00;21.70;;;8.23;;
35488;SDS011;21602;55.670;37.578;2022-10-18T08:08:26;12.60;;;8.25;;
35488;SDS011;21602;55.670;37.578;2022-10-18T08:10:53;11.57;;;7.38;;
35488;SDS011;21602;55.670;37.578;2022-10-18T08:13:19;15.25;;;9.07;;
35488;SDS011;21602;55.670;37.578;2022-10-18T08:15:45;15.02;;;8.68;;
35488;SDS011;21602;55.670;37.578;2022-10-18T08:18:11;14.82;;;8.40;;
35488;SDS011;21602;55.670;37.578;2022-10-18T08:20:46;13.20;;;8.82;;
35488;SDS011;21602;55.670;37.578;2022-10-18T08:23:12;18.33;;;9.45;;
35488;SDS011;21602;55.670;37.578;2022-10-18T08:25:39;13.10;;;8.35;;
35488;SDS011;21602;55.670;37.578;2022-10-18T08:28:05;16.08;;;9.23;;
35488;SDS011;21602;55.670;37.578;2022-10-18T08:30:33;10.95;;;7.95;;
35488;SDS011;21602;55.670;37.578;2022-10-18T08:33:00;13.55;;;8.60;;
35488;SDS011;21602;55.670;37.578;2022-10-18T08:35:27;13.48;;;8.85;;
35488;SDS011;21602;55.670;37.578;2022-10-18T08:37:53;13.90;;;9.30;;
35488;SDS011;21602;55.670;37.578;2022-10-18T08:40:18;13.10;;;9.52;;
35488;SDS011;21602;55.670;37.578;2022-10-18T08:45:25;17.60;;;9.48;;
35488;SDS011;21602;55.670;37.578;2022-10-18T08:47:53;14.48;;;8.95;;
35488;SDS011;21602;55.670;37.578;2022-10-18T08:50:26;14.65;;;8.43;;
35488;SDS011;21602;55.670;37.578;2022-10-18T08:53:04;15.13;;;8.95;;
35488;SDS011;21602;55.670;37.578;2022-10-18T08:58:29;13.77;;;8.48;;
35488;SDS011;21602;55.670;37.578;2022-10-18T09:01:07;10.27;;;7.97;;
35488;SDS011;21602;55.670;37.578;2022-10-18T09:25:48;11.13;;;7.28;;
35488;SDS011;21602;55.670;37.578;2022-10-18T09:31:16;9.18;;;6.03;;
35488;SDS011;21602;55.670;37.578;2022-10-18T09:33:49;6.30;;;5.65;;
35488;SDS011;21602;55.670;37.578;2022-10-18T09:36:31;8.00;;;5.40;;
35488;SDS011;21602;55.670;37.578;2022-10-18T09:39:03;7.13;;;5.07;;
35488;SDS011;21602;55.670;37.578;2022-10-18T09:45:19;6.60;;;4.88;;
35488;SDS011;21602;55.670;37.578;2022-10-18T09:47:13;5.53;;;4.68;;
35488;SDS011;21602;55.670;37.578;2022-10-18T09:49:44;7.63;;;5.40;;
35488;SDS011;21602;55.670;37.578;2022-10-18T09:52:23;7.00;;;4.82;;
35488;SDS011;21602;55.670;37.578;2022-10-18T09:54:57;10.88;;;5.30;;
35488;SDS011;21602;55.670;37.578;2022-10-18T09:57:39;6.35;;;5.00;;
35488;SDS011;21602;55.670;37.578;2022-10-18T10:00:14;5.75;;;4.85;;
35488;SDS011;21602;55.670;37.578;2022-10-18T10:02:45;7.35;;;5.00;;
35488;SDS011;21602;55.670;37.578;2022-10-18T10:05:14;7.60;;;5.00;;
35488;SDS011;21602;55.670;37.578;2022-10-18T10:07:44;6.10;;;5.05;;
35488;SDS011;21602;55.670;37.578;2022-10-18T10:10:24;6.95;;;5.43;;
35488;SDS011;21602;55.670;37.578;2022-10-18T10:13:05;7.32;;;5.50;;
35488;SDS011;21602;55.670;37.578;2022-10-18T10:18:20;6.60;;;5.57;;
35488;SDS011;21602;55.670;37.578;2022-10-18T10:20:52;7.00;;;5.22;;
35488;SDS011;21602;55.670;37.578;2022-10-18T10:23:26;7.00;;;5.80;;
35488;SDS011;21602;55.670;37.578;2022-10-18T10:25:58;6.90;;;6.00;;
35488;SDS011;21602;55.670;37.578;2022-10-18T10:28:30;7.57;;;6.45;;
35488;SDS011;21602;55.670;37.578;2022-10-18T10:31:16;9.63;;;7.03;;
35488;SDS011;21602;55.670;37.578;2022-10-18T10:36:31;7.63;;;6.35;;
35488;SDS011;21602;55.670;37.578;2022-10-18T10:39:14;9.02;;;7.18;;
35488;SDS011;21602;55.670;37.578;2022-10-18T10:42:01;10.23;;;7.93;;
35488;SDS011;21602;55.670;37.578;2022-10-18T10:44:28;12.05;;;8.35;;
35488;SDS011;21602;55.670;37.578;2022-10-18T10:46:56;12.07;;;8.77;;
35488;SDS011;21602;55.670;37.578;2022-10-18T10:49:23;10.65;;;8.88;;
35488;SDS011;21602;55.670;37.578;2022-10-18T10:52:04;11.13;;;9.73;;
35488;SDS011;21602;55.670;37.578;2022-10-18T10:54:31;11.40;;;8.90;;
35488;SDS011;21602;55.670;37.578;2022-10-18T10:57:05;10.57;;;8.27;;
35488;SDS011;21602;55.670;37.578;2022-10-18T11:04:43;10.38;;;8.82;;
35488;SDS011;21602;55.670;37.578;2022-10-18T11:07:27;13.07;;;8.98;;
35488;SDS011;21602;55.670;37.578;2022-10-18T11:23:16;13.55;;;9.80;;
35488;SDS011;21602;55.670;37.578;2022-10-18T11:31:52;11.57;;;8.85;;
35488;SDS011;21602;55.670;37.578;2022-10-18T11:42:40;11.48;;;10.05;;
35488;SDS011;21602;55.670;37.578;2022-10-18T12:02:02;13.85;;;10.75;;
35488;SDS011;21602;55.670;37.578;2022-10-18T12:04:54;12.10;;;9.18;;
35488;SDS011;21602;55.670;37.578;2022-10-18T12:09:50;9.88;;;8.88;;
35488;SDS011;21602;55.670;37.578;2022-10-18T12:12:26;10.00;;;8.50;;
35488;SDS011;21602;55.670;37.578;2022-10-18T12:15:00;11.25;;;7.80;;
35488;SDS011;21602;55.670;37.578;2022-10-18T12:17:33;9.48;;;8.48;;
35488;SDS011;21602;55.670;37.578;2022-10-18T12:20:14;12.75;;;9.15;;
35488;SDS011;21602;55.670;37.578;2022-10-18T12:22:42;11.50;;;8.52;;
35488;SDS011;21602;55.670;37.578;2022-10-18T12:25:14;14.70;;;9.73;;
35488;SDS011;21602;55.670;37.578;2022-10-18T12:30:19;10.30;;;8.13;;
35488;SDS011;21602;55.670;37.578;2022-10-18T12:32:53;9.60;;;8.10;;
35488;SDS011;21602;55.670;37.578;2022-10-18T12:35:28;10.25;;;8.38;;
35488;SDS011;21602;55.670;37.578;2022-10-18T12:40:44;9.68;;;7.95;;
35488;SDS011;21602;55.670;37.578;2022-10-18T12:43:18;8.00;;;7.20;;
35488;SDS011;21602;55.670;37.578;2022-10-18T12:45:50;12.75;;;8.60;;
35488;SDS011;21602;55.670;37.578;2022-10-18T12:48:37;9.20;;;8.18;;
35488;SDS011;21602;55.670;37.578;2022-10-18T12:54:19;9.32;;;8.00;;
35488;SDS011;21602;55.670;37.578;2022-10-18T12:56:41;9.82;;;7.85;;
35488;SDS011;21602;55.670;37.578;2022-10-18T13:09:33;8.23;;;6.90;;
35488;SDS011;21602;55.670;37.578;2022-10-18T13:17:19;7.88;;;7.07;;
35488;SDS011;21602;55.670;37.578;2022-10-18T13:20:11;7.93;;;6.40;;
35488;SDS011;21602;55.670;37.578;2022-10-18T13:23:09;8.10;;;7.00;;
35488;SDS011;21602;55.670;37.578;2022-10-18T13:26:03;7.45;;;6.63;;
35488;SDS011;21602;55.670;37.578;2022-10-18T13:28:41;7.50;;;6.53;;
35488;SDS011;21602;55.670;37.578;2022-10-18T13:34:20;10.35;;;7.72;;
35488;SDS011;21602;55.670;37.578;2022-10-18T13:37:22;7.43;;;5.93;;
35488;SDS011;21602;55.670;37.578;2022-10-18T13:39:40;7.45;;;4.88;;
35488;SDS011;21602;55.670;37.578;2022-10-18T13:45:41;5.60;;;3.92;;
35488;SDS011;21602;55.670;37.578;2022-10-18T13:47:56;4.60;;;4.03;;
35488;SDS011;21602;55.670;37.578;2022-10-18T13:50:53;4.22;;;3.55;;
35488;SDS011;21602;55.670;37.578;2022-10-18T13:53:45;4.38;;;3.55;;
35488;SDS011;21602;55.670;37.578;2022-10-18T13:56:44;3.67;;;3.25;;
35488;SDS011;21602;55.670;37.578;2022-10-18T13:59:50;4.15;;;3.28;;
35488;SDS011;21602;55.670;37.578;2022-10-18T14:06:08;3.40;;;3.03;;
35488;SDS011;21602;55.670;37.578;2022-10-18T14:08:28;3.20;;;2.90;;
35488;SDS011;21602;55.670;37.578;2022-10-18T14:16:33;3.47;;;2.47;;
35488;SDS011;21602;55.670;37.578;2022-10-18T14:19:07;2.88;;;2.08;;
35488;SDS011;21602;55.670;37.578;2022-10-18T14:24:52;2.50;;;1.90;;
35488;SDS011;21602;55.670;37.578;2022-10-18T14:29:47;2.05;;;1.80;;
35488;SDS011;21602;55.670;37.578;2022-10-18T14:32:26;1.95;;;1.63;;
35488;SDS011;21602;55.670;37.578;2022-10-18T14:34:56;2.55;;;1.50;;
35488;SDS011;21602;55.670;37.578;2022-10-18T14:37:32;2.80;;;1.65;;
35488;SDS011;21602;55.670;37.578;2022-10-18T14:40:00;1.80;;;1.27;;
35488;SDS011;21602;55.670;37.578;2022-10-18T14:42:28;2.40;;;1.45;;
35488;SDS011;21602;55.670;37.578;2022-10-18T14:44:54;1.70;;;1.30;;
35488;SDS011;21602;55.670;37.578;2022-10-18T14:47:24;2.42;;;1.27;;
35488;SDS011;21602;55.670;37.578;2022-10-18T14:49:52;3.08;;;1.85;;
35488;SDS011;21602;55.670;37.578;2022-10-18T14:52:26;1.65;;;1.50;;
35488;SDS011;21602;55.670;37.578;2022-10-18T14:54:55;3.30;;;1.40;;
35488;SDS011;21602;55.670;37.578;2022-10-18T14:57:24;2.15;;;1.30;;
35488;SDS011;21602;55.670;37.578;2022-10-18T14:59:54;1.58;;;1.25;;
35488;SDS011;21602;55.670;37.578;2022-10-18T15:02:29;3.17;;;1.45;;
35488;SDS011;21602;55.670;37.578;2022-10-18T15:07:51;1.10;;;0.90;;
35488;SDS011;21602;55.670;37.578;2022-10-18T15:10:21;1.20;;;1.10;;
35488;SDS011;21602;55.670;37.578;2022-10-18T15:12:52;1.20;;;1.10;;
35488;SDS011;21602;55.670;37.578;2022-10-18T15:15:20;1.90;;;1.33;;
35488;SDS011;21602;55.670;37.578;2022-10-18T15:17:48;1.38;;;0.80;;
35488;SDS011;21602;55.670;37.578;2022-10-18T15:22:53;2.53;;;0.88;;
35488;SDS011;21602;55.670;37.578;2022-10-18T15:25:28;1.38;;;0.60;;
35488;SDS011;21602;55.670;37.578;2022-10-18T15:28:00;1.70;;;0.77;;
35488;SDS011;21602;55.670;37.578;2022-10-18T15:30:36;0.80;;;0.50;;
35488;SDS011;21602;55.670;37.578;2022-10-18T15:33:16;1.20;;;0.63;;
35488;SDS011;21602;55.670;37.578;2022-10-18T15:35:46;1.92;;;0.70;;
35488;SDS011;21602;55.670;37.578;2022-10-18T15:38:16;1.27;;;0.82;;
35488;SDS011;21602;55.670;37.578;2022-10-18T15:40:50;0.75;;;0.50;;
35488;SDS011;21602;55.670;37.578;2022-10-18T15:45:52;4.35;;;0.65;;
35488;SDS011;21602;55.670;37.578;2022-10-18T15:48:32;0.50;;;0.40;;
35488;SDS011;21602;55.670;37.578;2022-10-18T15:51:01;1.35;;;0.90;;
35488;SDS011;21602;55.670;37.578;2022-10-18T15:53:51;2.05;;;0.43;;
35488;SDS011;21602;55.670;37.578;2022-10-18T15:56:25;2.05;;;0.57;;
35488;SDS011;21602;55.670;37.578;2022-10-18T15:58:53;2.97;;;0.60;;
35488;SDS011;21602;55.670;37.578;2022-10-18T16:01:28;1.23;;;0.60;;
35488;SDS011;21602;55.670;37.578;2022-10-18T16:06:54;2.70;;;0.50;;
35488;SDS011;21602;55.670;37.578;2022-10-18T16:09:22;3.03;;;0.70;;
35488;SDS011;21602;55.670;37.578;2022-10-18T16:11:49;0.88;;;0.82;;
35488;SDS011;21602;55.670;37.578;2022-10-18T16:14:17;1.15;;;0.57;;
35488;SDS011;21602;55.670;37.578;2022-10-18T16:16:44;1.20;;;0.63;;
35488;SDS011;21602;55.670;37.578;2022-10-18T16:19:12;5.68;;;0.80;;
35488;SDS011;21602;55.670;37.578;2022-10-18T16:21:48;1.02;;;0.68;;
35488;SDS011;21602;55.670;37.578;2022-10-18T16:24:18;1.05;;;0.90;;
35488;SDS011;21602;55.670;37.578;2022-10-18T16:26:45;1.95;;;0.80;;
35488;SDS011;21602;55.670;37.578;2022-10-18T16:29:15;1.10;;;0.40;;
35488;SDS011;21602;55.670;37.578;2022-10-18T16:31:45;0.55;;;0.50;;
35488;SDS011;21602;55.670;37.578;2022-10-18T16:34:12;0.68;;;0.45;;
35488;SDS011;21602;55.670;37.578;2022-10-18T16:36:39;1.42;;;0.47;;
35488;SDS011;21602;55.670;37.578;2022-10-18T16:39:06;0.45;;;0.45;;
35488;SDS011;21602;55.670;37.578;2022-10-18T16:41:41;0.68;;;0.50;;
35488;SDS011;21602;55.670;37.578;2022-10-18T16:44:07;0.50;;;0.50;;
35488;SDS011;21602;55.670;37.578;2022-10-18T16:46:33;2.05;;;0.60;;
35488;SDS011;21602;55.670;37.578;2022-10-18T16:49:00;0.70;;;0.63;;
35488;SDS011;21602;55.670;37.578;2022-10-18T16:51:26;0.57;;;0.57;;
35488;SDS011;21602;55.670;37.578;2022-10-18T16:53:52;0.73;;;0.50;;
35488;SDS011;21602;55.670;37.578;2022-10-18T16:56:23;0.93;;;0.70;;
35488;SDS011;21602;55.670;37.578;2022-10-18T16:58:51;0.50;;;0.40;;
35488;SDS011;21602;55.670;37.578;2022-10-18T17:01:18;1.35;;;0.98;;
35488;SDS011;21602;55.670;37.578;2022-10-18T17:03:45;0.82;;;0.50;;
35488;SDS011;21602;55.670;37.578;2022-10-18T17:06:18;0.65;;;0.63;;
35488;SDS011;21602;55.670;37.578;2022-10-18T17:08:47;3.38;;;0.50;;
35488;SDS011;21602;55.670;37.578;2022-10-18T17:11:14;2.35;;;0.40;;
35488;SDS011;21602;55.670;37.578;2022-10-18T17:13:41;2.05;;;0.40;;
35488;SDS011;21602;55.670;37.578;2022-10-18T17:16:12;1.38;;;0.43;;
35488;SDS011;21602;55.670;37.578;2022-10-18T17:18:43;1.15;;;0.82;;
35488;SDS011;21602;55.670;37.578;2022-10-18T17:21:09;0.90;;;0.45;;
35488;SDS011;21602;55.670;37.578;2022-10-18T17:23:35;0.70;;;0.50;;
35488;SDS011;21602;55.670;37.578;2022-10-18T17:26:00;0.80;;;0.50;;
35488;SDS011;21602;55.670;37.578;2022-10-18T17:28:26;0.82;;;0.50;;
35488;SDS011;21602;55.670;37.578;2022-10-18T17:30:53;2.13;;;0.85;;
35488;SDS011;21602;55.670;37.578;2022-10-18T17:33:19;1.05;;;0.50;;
35488;SDS011;21602;55.670;37.578;2022-10-18T17:35:45;1.58;;;0.50;;
35488;SDS011;21602;55.670;37.578;2022-10-18T17:38:14;0.50;;;0.40;;
35488;SDS011;21602;55.670;37.578;2022-10-18T17:40:41;0.63;;;0.50;;
35488;SDS011;21602;55.670;37.578;2022-10-18T17:43:26;1.50;;;0.40;;
35488;SDS011;21602;55.670;37.578;2022-10-18T17:45:53;0.68;;;0.60;;
35488;SDS011;21602;55.670;37.578;2022-10-18T17:50:47;0.25;;;0.20;;
35488;SDS011;21602;55.670;37.578;2022-10-18T17:53:17;0.30;;;0.30;;